Time;durP1;ratioP1;P1;durP2;ratioP2;P2;SDS_P1;SDS_P2;PMS_P1;PMS_P2;Temp;Humidity;BMP_temperature;BMP_pressure;BME280_temperature;BME280_humidity;BME280_pressure;Samples;Min_cycle;Max_cycle;Signal;HPM_P1;HPM_P2
2024/01/05 00:00:43;;;;;;;;;2.00;0.67;;;;;;;;5072354;28;8882;-89
2024/01/05 00:03:11;;;;;;;;;1.00;1.00;;;;;;;;5066054;28;9007;-87
2024/01/05 00:05:39;;;;;;;;;2.33;0.00;;;;;;;;5073007;28;9125;-87
2024/01/05 00:08:08;;;;;;;;;1.00;1.00;;;;;;;;5071594;28;8954;-89
2024/01/05 00:10:36;;;;;;;;;2.00;0.67;;;;;;;;5064187;28;9034;-88
2024/01/05 00:13:07;;;;;;;;;0.00;0.00;;;;;;;;5074069;28;9098;-87
2024/01/05 00:15:35;;;;;;;;;1.33;1.00;;;;;;;;5066901;28;8977;-87
2024/01/05 00:18:02;;;;;;;;;0.00;0.00;;;;;;;;5070251;28;9736;-88
2024/01/05 00:20:29;;;;;;;;;2.00;0.00;;;;;;;;5055617;28;8964;-89
2024/01/05 00:22:57;;;;;;;;;1.67;1.00;;;;;;;;5066597;28;9054;-88
2024/01/05 00:25:26;;;;;;;;;0.33;0.33;;;;;;;;5063987;28;8948;-89
2024/01/05 00:27:53;;;;;;;;;2.00;0.00;;;;;;;;5057618;28;8929;-88
2024/01/05 00:30:21;;;;;;;;;2.00;0.33;;;;;;;;5064118;28;9001;-88
2024/01/05 00:32:48;;;;;;;;;0.00;0.00;;;;;;;;5071642;28;8966;-89
2024/01/05 00:35:16;;;;;;;;;0.00;0.00;;;;;;;;5062700;28;9023;-89
2024/01/05 00:37:43;;;;;;;;;0.00;0.00;;;;;;;;5072640;28;9088;-88
2024/01/05 00:40:12;;;;;;;;;3.00;1.00;;;;;;;;5062957;28;9203;-89
2024/01/05 00:42:40;;;;;;;;;0.00;0.00;;;;;;;;5070953;28;9031;-88
2024/01/05 00:45:09;;;;;;;;;2.00;0.67;;;;;;;;5061504;28;9098;-89
2024/01/05 00:47:36;;;;;;;;;0.00;0.00;;;;;;;;5055810;28;9764;-88
2024/01/05 00:50:04;;;;;;;;;0.00;0.00;;;;;;;;5053807;28;9041;-89
2024/01/05 00:52:31;;;;;;;;;0.00;0.00;;;;;;;;5065294;28;9019;-88
2024/01/05 00:54:59;;;;;;;;;1.00;1.00;;;;;;;;5055100;28;9052;-88
2024/01/05 00:57:27;;;;;;;;;0.00;0.00;;;;;;;;5060659;28;9109;-88
2024/01/05 00:59:56;;;;;;;;;0.00;0.00;;;;;;;;5069345;28;8935;-89
2024/01/05 01:02:23;;;;;;;;;0.00;0.00;;;;;;;;5069739;28;8974;-88
2024/01/05 01:04:51;;;;;;;;;2.33;1.00;;;;;;;;5067817;28;9011;-86
2024/01/05 01:07:20;;;;;;;;;0.67;0.67;;;;;;;;5071631;28;9083;-88
2024/01/05 01:09:47;;;;;;;;;0.00;0.00;;;;;;;;5068489;28;9018;-88
2024/01/05 01:12:17;;;;;;;;;3.00;0.67;;;;;;;;5063114;28;9064;-89
2024/01/05 01:14:44;;;;;;;;;0.00;0.00;;;;;;;;5066103;28;9008;-89
2024/01/05 01:17:13;;;;;;;;;0.00;0.00;;;;;;;;5072046;28;9046;-89
2024/01/05 01:19:40;;;;;;;;;0.00;0.00;;;;;;;;5074748;28;9030;-89
2024/01/05 01:22:08;;;;;;;;;0.00;0.00;;;;;;;;5088827;28;9185;-88
2024/01/05 01:24:35;;;;;;;;;0.00;0.00;;;;;;;;5071920;28;9280;-88
2024/01/05 01:27:02;;;;;;;;;1.00;0.00;;;;;;;;5069889;28;9095;-89
2024/01/05 01:29:33;;;;;;;;;0.00;0.00;;;;;;;;5070968;28;9073;-88
2024/01/05 01:32:00;;;;;;;;;0.00;0.00;;;;;;;;5058697;28;9135;-88
2024/01/05 01:34:29;;;;;;;;;0.00;0.00;;;;;;;;5069976;28;9263;-89
2024/01/05 01:36:57;;;;;;;;;0.00;0.00;;;;;;;;5071494;28;10061;-89
2024/01/05 01:39:26;;;;;;;;;0.00;0.00;;;;;;;;5072625;28;9343;-89
2024/01/05 01:41:53;;;;;;;;;0.00;0.00;;;;;;;;5075010;28;9169;-90
2024/01/05 01:44:21;;;;;;;;;0.00;0.00;;;;;;;;5075424;28;9254;-89
2024/01/05 01:46:49;;;;;;;;;0.00;0.00;;;;;;;;5076156;28;9176;-89
2024/01/05 01:49:20;;;;;;;;;0.00;0.00;;;;;;;;5071290;28;9332;-89
2024/01/05 01:51:50;;;;;;;;;0.00;0.00;;;;;;;;5066029;28;9373;-90
2024/01/05 01:54:18;;;;;;;;;0.00;0.00;;;;;;;;5064574;28;9257;-88
2024/01/05 01:56:46;;;;;;;;;0.00;0.00;;;;;;;;5069040;28;9403;-89
2024/01/05 01:59:14;;;;;;;;;0.00;0.00;;;;;;;;5064798;28;9182;-88
2024/01/05 02:01:42;;;;;;;;;0.00;0.00;;;;;;;;5062993;28;9128;-88
2024/01/05 02:04:14;;;;;;;;;3.00;0.00;;;;;;;;5064645;28;9204;-89
2024/01/05 02:06:44;;;;;;;;;0.00;0.00;;;;;;;;5067564;28;9449;-90
2024/01/05 02:09:13;;;;;;;;;0.00;0.00;;;;;;;;5056867;28;9184;-90
2024/01/05 02:11:40;;;;;;;;;0.00;0.00;;;;;;;;5064674;28;9445;-90
2024/01/05 02:14:08;;;;;;;;;0.00;0.00;;;;;;;;5070144;28;9396;-90
2024/01/05 02:16:35;;;;;;;;;0.00;0.00;;;;;;;;5069795;28;9513;-91
2024/01/05 02:19:03;;;;;;;;;0.00;0.00;;;;;;;;5070177;28;9499;-90
2024/01/05 02:21:32;;;;;;;;;0.00;0.00;;;;;;;;5069039;28;9329;-90
2024/01/05 02:24:02;;;;;;;;;0.00;0.00;;;;;;;;5070133;28;9407;-90
2024/01/05 02:26:29;;;;;;;;;0.00;0.00;;;;;;;;5060280;28;9407;-90
2024/01/05 02:28:57;;;;;;;;;0.00;0.00;;;;;;;;5072046;28;9450;-89
2024/01/05 02:31:24;;;;;;;;;0.00;0.00;;;;;;;;5071367;28;9349;-90
2024/01/05 02:33:52;;;;;;;;;1.00;0.00;;;;;;;;5069567;28;9576;-90
2024/01/05 02:36:22;;;;;;;;;0.00;0.00;;;;;;;;5069912;28;9494;-91
2024/01/05 02:38:50;;;;;;;;;0.00;0.00;;;;;;;;5069682;28;9438;-90
2024/01/05 02:41:19;;;;;;;;;0.00;0.00;;;;;;;;5069325;28;9494;-89
2024/01/05 02:43:49;;;;;;;;;0.00;0.00;;;;;;;;5066422;28;9472;-89
2024/01/05 02:46:17;;;;;;;;;0.00;0.00;;;;;;;;5068694;28;9387;-89
2024/01/05 02:48:44;;;;;;;;;0.00;0.00;;;;;;;;5067900;28;9507;-90
2024/01/05 02:51:11;;;;;;;;;0.00;0.00;;;;;;;;5068896;28;9609;-90
2024/01/05 02:53:39;;;;;;;;;0.00;0.00;;;;;;;;5068165;28;9573;-90
2024/01/05 02:56:07;;;;;;;;;0.00;0.00;;;;;;;;5068765;28;9541;-90
2024/01/05 02:58:36;;;;;;;;;0.00;0.00;;;;;;;;5067995;28;9500;-89
2024/01/05 03:01:05;;;;;;;;;0.00;0.00;;;;;;;;5069624;28;9651;-89
2024/01/05 03:03:33;;;;;;;;;0.00;0.00;;;;;;;;5067442;28;9679;-89
2024/01/05 03:06:00;;;;;;;;;0.00;0.00;;;;;;;;5069934;28;9489;-89
2024/01/05 03:08:28;;;;;;;;;0.00;0.00;;;;;;;;5067533;28;9714;-89
2024/01/05 03:10:55;;;;;;;;;0.00;0.00;;;;;;;;5069940;28;9549;-90
2024/01/05 03:13:25;;;;;;;;;1.00;0.00;;;;;;;;5069155;28;9485;-89
2024/01/05 03:15:56;;;;;;;;;0.00;0.00;;;;;;;;5068891;28;9713;-88
2024/01/05 03:18:23;;;;;;;;;0.00;0.00;;;;;;;;5070227;28;9617;-89
2024/01/05 03:20:53;;;;;;;;;0.00;0.00;;;;;;;;5052428;28;9635;-89
2024/01/05 03:23:22;;;;;;;;;0.00;0.00;;;;;;;;5069745;28;9996;-88
2024/01/05 03:25:51;;;;;;;;;0.00;0.00;;;;;;;;5070180;28;9698;-88
2024/01/05 03:28:19;;;;;;;;;0.00;0.00;;;;;;;;5072912;28;9801;-89
2024/01/05 03:30:46;;;;;;;;;0.00;0.00;;;;;;;;5072014;28;9775;-88
2024/01/05 03:33:15;;;;;;;;;1.75;0.00;;;;;;;;5076901;28;9919;-88
2024/01/05 03:35:42;;;;;;;;;0.00;0.00;;;;;;;;5078501;28;10077;-88
2024/01/05 03:38:10;;;;;;;;;0.00;0.00;;;;;;;;5068413;28;10127;-88
2024/01/05 03:40:37;;;;;;;;;0.00;0.00;;;;;;;;5069951;28;10582;-89
2024/01/05 03:43:04;;;;;;;;;0.00;0.00;;;;;;;;5064806;28;10042;-88
2024/01/05 03:45:32;;;;;;;;;0.00;0.00;;;;;;;;5078135;28;9998;-88
2024/01/05 03:47:59;;;;;;;;;0.00;0.00;;;;;;;;5086964;28;9950;-89
2024/01/05 03:50:28;;;;;;;;;0.00;0.00;;;;;;;;5088410;28;10008;-89
2024/01/05 03:52:55;;;;;;;;;0.00;0.00;;;;;;;;5071750;28;10071;-87
2024/01/05 03:55:23;;;;;;;;;0.00;0.00;;;;;;;;5071367;28;9919;-88
2024/01/05 03:57:50;;;;;;;;;0.00;0.00;;;;;;;;5075459;28;10026;-89
2024/01/05 04:00:18;;;;;;;;;0.50;0.00;;;;;;;;5073860;28;10065;-90
2024/01/05 04:02:45;;;;;;;;;0.00;0.00;;;;;;;;5066715;28;9868;-88
2024/01/05 04:05:13;;;;;;;;;0.00;0.00;;;;;;;;5065228;28;10039;-89
2024/01/05 04:07:42;;;;;;;;;0.00;0.00;;;;;;;;5066198;28;9848;-89
2024/01/05 04:10:09;;;;;;;;;0.50;0.00;;;;;;;;5069693;28;9973;-88
2024/01/05 04:12:38;;;;;;;;;0.00;0.00;;;;;;;;5068829;28;10020;-87
2024/01/05 04:15:06;;;;;;;;;0.00;0.00;;;;;;;;5069134;28;10039;-88
2024/01/05 04:17:34;;;;;;;;;0.00;0.00;;;;;;;;5074730;28;9862;-88
2024/01/05 04:20:02;;;;;;;;;0.00;0.00;;;;;;;;5077614;28;9832;-89
2024/01/05 04:22:30;;;;;;;;;0.00;0.00;;;;;;;;5076325;28;9892;-88
2024/01/05 04:24:59;;;;;;;;;1.00;0.00;;;;;;;;5073550;28;10004;-90
2024/01/05 04:27:27;;;;;;;;;0.00;0.00;;;;;;;;5072093;28;9925;-89
2024/01/05 04:29:54;;;;;;;;;0.00;0.00;;;;;;;;5071325;28;10103;-89
2024/01/05 04:32:22;;;;;;;;;0.00;0.00;;;;;;;;5070528;28;10782;-89
2024/01/05 04:34:49;;;;;;;;;0.00;0.00;;;;;;;;5070962;28;10013;-90
2024/01/05 04:37:16;;;;;;;;;0.00;0.00;;;;;;;;5070632;28;10139;-89
2024/01/05 04:39:44;;;;;;;;;0.00;0.00;;;;;;;;5069424;28;10061;-89
2024/01/05 04:42:14;;;;;;;;;0.00;0.00;;;;;;;;5071216;28;10131;-89
2024/01/05 04:44:45;;;;;;;;;0.00;0.00;;;;;;;;5072428;28;10137;-89
2024/01/05 04:47:14;;;;;;;;;0.00;0.00;;;;;;;;5068961;28;10011;-90
2024/01/05 04:49:41;;;;;;;;;0.00;0.00;;;;;;;;5070501;28;9999;-90
2024/01/05 04:52:09;;;;;;;;;1.25;0.00;;;;;;;;5071731;28;10021;-89
2024/01/05 04:54:36;;;;;;;;;0.25;0.00;;;;;;;;5071637;28;10161;-89
2024/01/05 04:57:04;;;;;;;;;0.00;0.00;;;;;;;;5070446;28;10068;-89
2024/01/05 04:59:35;;;;;;;;;0.00;0.00;;;;;;;;5070587;28;10227;-89
2024/01/05 05:02:02;;;;;;;;;0.00;0.00;;;;;;;;5069606;28;10019;-88
2024/01/05 05:04:32;;;;;;;;;0.00;0.00;;;;;;;;5069331;28;10104;-88
2024/01/05 05:07:01;;;;;;;;;0.00;0.00;;;;;;;;5067585;28;10158;-87
2024/01/05 05:09:31;;;;;;;;;0.00;0.00;;;;;;;;5067530;28;10171;-87
2024/01/05 05:12:01;;;;;;;;;0.00;0.00;;;;;;;;5070585;28;10138;-87
2024/01/05 05:14:41;;;;;;;;;0.75;0.00;;;;;;;;5070023;28;10232;-86
2024/01/05 05:17:08;;;;;;;;;1.00;0.00;;;;;;;;5070812;28;10231;-91
2024/01/05 05:19:36;;;;;;;;;0.50;0.00;;;;;;;;5073658;28;10091;-89
2024/01/05 05:22:03;;;;;;;;;0.00;0.00;;;;;;;;5075885;28;10215;-90
2024/01/05 05:24:30;;;;;;;;;0.00;0.00;;;;;;;;5076522;28;10280;-89
2024/01/05 05:26:58;;;;;;;;;0.00;0.00;;;;;;;;5065904;28;10345;-88
2024/01/05 05:29:25;;;;;;;;;0.00;0.00;;;;;;;;5065406;28;10140;-87
2024/01/05 05:31:54;;;;;;;;;0.00;0.00;;;;;;;;5069713;28;10020;-87
2024/01/05 05:34:21;;;;;;;;;0.00;0.00;;;;;;;;5067902;28;10229;-88
2024/01/05 05:36:51;;;;;;;;;0.00;0.00;;;;;;;;5060505;28;10118;-89
2024/01/05 05:39:18;;;;;;;;;0.00;0.00;;;;;;;;5073386;28;10102;-89
2024/01/05 05:41:49;;;;;;;;;0.00;0.00;;;;;;;;5072340;28;10204;-88
2024/01/05 05:44:18;;;;;;;;;0.50;0.00;;;;;;;;5061511;28;10042;-89
2024/01/05 05:46:46;;;;;;;;;1.00;0.00;;;;;;;;5066251;28;10893;-89
2024/01/05 05:49:17;;;;;;;;;0.00;0.00;;;;;;;;5063662;28;10138;-89
2024/01/05 05:51:50;;;;;;;;;0.00;0.00;;;;;;;;5067802;28;10187;-89
2024/01/05 05:54:18;;;;;;;;;0.00;0.00;;;;;;;;5069398;28;10143;-89
2024/01/05 05:56:45;;;;;;;;;0.75;0.00;;;;;;;;5066622;28;10167;-88
2024/01/05 05:59:16;;;;;;;;;0.00;0.00;;;;;;;;5063094;28;10989;-88
2024/01/05 06:01:44;;;;;;;;;1.00;0.00;;;;;;;;5067499;28;10102;-89
2024/01/05 06:04:16;;;;;;;;;0.00;0.00;;;;;;;;5067756;28;10209;-89
2024/01/05 06:06:46;;;;;;;;;0.00;0.00;;;;;;;;5070712;28;10206;-79
2024/01/05 06:09:14;;;;;;;;;0.25;0.00;;;;;;;;5068830;28;11180;-84
2024/01/05 06:11:42;;;;;;;;;0.00;0.00;;;;;;;;5068462;28;10279;-82
2024/01/05 06:14:09;;;;;;;;;0.00;0.00;;;;;;;;5063972;28;10438;-82
2024/01/05 06:16:36;;;;;;;;;0.00;0.00;;;;;;;;5068088;28;10288;-81
2024/01/05 06:19:03;;;;;;;;;0.00;0.00;;;;;;;;5055976;28;10208;-80
2024/01/05 06:21:32;;;;;;;;;1.50;0.00;;;;;;;;5069109;28;10509;-81
2024/01/05 06:24:05;;;;;;;;;1.00;0.00;;;;;;;;5085544;28;10423;-76
2024/01/05 06:26:32;;;;;;;;;0.00;0.00;;;;;;;;5082306;28;10469;-80
2024/01/05 06:28:59;;;;;;;;;0.00;0.00;;;;;;;;5068926;28;10372;-82
2024/01/05 06:31:27;;;;;;;;;0.00;0.00;;;;;;;;5069302;28;11190;-82
2024/01/05 06:33:55;;;;;;;;;0.00;0.00;;;;;;;;5069439;28;10475;-80
2024/01/05 06:36:25;;;;;;;;;0.25;0.00;;;;;;;;5069980;28;10451;-84
2024/01/05 06:38:56;;;;;;;;;0.00;0.00;;;;;;;;5069140;28;10342;-81
2024/01/05 06:41:23;;;;;;;;;1.00;0.00;;;;;;;;5068286;28;10485;-76
2024/01/05 06:43:50;;;;;;;;;0.75;0.00;;;;;;;;5067432;28;10467;-81
2024/01/05 06:46:17;;;;;;;;;1.00;0.00;;;;;;;;5068301;28;10516;-82
2024/01/05 06:48:44;;;;;;;;;1.00;0.00;;;;;;;;5068112;28;10662;-81
2024/01/05 06:51:11;;;;;;;;;0.00;0.00;;;;;;;;5067799;28;10461;-81
2024/01/05 06:53:39;;;;;;;;;0.00;0.00;;;;;;;;5069459;28;10364;-81
2024/01/05 06:56:10;;;;;;;;;0.00;0.00;;;;;;;;5069911;28;10383;-83
2024/01/05 06:58:37;;;;;;;;;0.00;0.00;;;;;;;;5069892;28;10351;-80
2024/01/05 07:01:05;;;;;;;;;0.00;0.00;;;;;;;;5067974;28;10437;-82
2024/01/05 07:03:32;;;;;;;;;0.00;0.00;;;;;;;;5065495;28;10477;-81
2024/01/05 07:05:59;;;;;;;;;0.00;0.00;;;;;;;;5069062;28;10422;-80
2024/01/05 07:08:27;;;;;;;;;0.00;0.00;;;;;;;;5070063;28;10654;-80
2024/01/05 07:10:54;;;;;;;;;0.00;0.00;;;;;;;;5071976;28;10495;-82
2024/01/05 07:13:23;;;;;;;;;0.00;0.00;;;;;;;;5073290;28;10670;-84
2024/01/05 07:15:51;;;;;;;;;0.00;0.00;;;;;;;;5059550;28;10613;-82
2024/01/05 07:18:18;;;;;;;;;0.00;0.00;;;;;;;;5055335;28;10661;-80
2024/01/05 07:20:46;;;;;;;;;0.50;0.00;;;;;;;;5063477;28;11039;-74
2024/01/05 07:23:13;;;;;;;;;4.50;0.75;;;;;;;;5060062;28;10878;-79
2024/01/05 07:25:40;;;;;;;;;0.00;0.00;;;;;;;;5066989;28;10672;-79
2024/01/05 07:28:08;;;;;;;;;0.00;0.00;;;;;;;;5069522;28;10682;-81
2024/01/05 07:30:37;;;;;;;;;0.00;0.00;;;;;;;;5073267;28;11454;-79
2024/01/05 07:33:05;;;;;;;;;0.00;0.00;;;;;;;;5070837;28;10798;-79
2024/01/05 07:35:32;;;;;;;;;0.00;0.00;;;;;;;;5074232;28;10725;-79
2024/01/05 07:38:00;;;;;;;;;0.00;0.00;;;;;;;;5072777;28;10719;-81
2024/01/05 07:40:28;;;;;;;;;0.00;0.00;;;;;;;;5067912;28;10724;-80
2024/01/05 07:42:58;;;;;;;;;0.00;0.00;;;;;;;;5069446;28;10753;-76
2024/01/05 07:45:28;;;;;;;;;1.00;0.00;;;;;;;;5071171;28;10626;-77
2024/01/05 07:47:58;;;;;;;;;0.00;0.00;;;;;;;;5071226;28;10715;-74
2024/01/05 07:50:25;;;;;;;;;1.50;0.75;;;;;;;;5069453;28;10595;-80
2024/01/05 07:52:52;;;;;;;;;0.50;0.00;;;;;;;;5072460;28;10665;-82
2024/01/05 07:55:19;;;;;;;;;0.00;0.00;;;;;;;;5073285;28;10820;-82
2024/01/05 07:57:48;;;;;;;;;0.00;0.00;;;;;;;;5074459;28;10698;-79
2024/01/05 08:00:16;;;;;;;;;0.00;0.00;;;;;;;;5072733;28;10656;-81
2024/01/05 08:02:43;;;;;;;;;0.00;0.00;;;;;;;;5063653;28;10666;-79
2024/01/05 08:05:13;;;;;;;;;0.00;0.00;;;;;;;;5070895;28;10594;-80
2024/01/05 08:07:42;;;;;;;;;0.00;0.00;;;;;;;;5070622;28;10687;-80
2024/01/05 08:10:10;;;;;;;;;1.00;0.00;;;;;;;;5068343;28;10674;-80
2024/01/05 08:12:37;;;;;;;;;0.00;0.00;;;;;;;;5064991;28;10673;-78
2024/01/05 08:15:07;;;;;;;;;0.00;0.00;;;;;;;;5070445;28;10654;-78
2024/01/05 08:17:38;;;;;;;;;1.00;1.00;;;;;;;;5067366;28;10565;-78
2024/01/05 08:20:09;;;;;;;;;0.00;0.00;;;;;;;;5070629;28;10523;-78
2024/01/05 08:22:38;;;;;;;;;0.00;0.00;;;;;;;;5069363;28;10624;-80
2024/01/05 08:25:06;;;;;;;;;2.00;0.00;;;;;;;;5070907;28;10587;-80
2024/01/05 08:27:33;;;;;;;;;0.00;0.00;;;;;;;;5069964;28;10488;-78
2024/01/05 08:30:00;;;;;;;;;1.00;0.00;;;;;;;;5068514;28;10449;-81
2024/01/05 08:32:29;;;;;;;;;2.00;1.00;;;;;;;;5069446;28;10477;-80
2024/01/05 08:34:56;;;;;;;;;0.00;0.00;;;;;;;;5070544;28;10569;-79
2024/01/05 08:37:24;;;;;;;;;0.00;0.00;;;;;;;;5068690;28;10778;-76
2024/01/05 08:39:53;;;;;;;;;0.00;0.00;;;;;;;;5070221;28;10655;-77
2024/01/05 08:42:20;;;;;;;;;0.50;0.00;;;;;;;;5068710;28;10749;-77
2024/01/05 08:44:48;;;;;;;;;0.75;0.75;;;;;;;;5070530;28;10595;-79
2024/01/05 08:47:15;;;;;;;;;0.00;0.00;;;;;;;;5070438;28;10656;-78
2024/01/05 08:49:42;;;;;;;;;0.00;0.00;;;;;;;;5070494;28;10595;-77
2024/01/05 08:52:09;;;;;;;;;1.00;1.00;;;;;;;;5071504;28;10610;-80
2024/01/05 08:54:39;;;;;;;;;0.00;0.00;;;;;;;;5073181;28;10697;-79
2024/01/05 08:57:10;;;;;;;;;0.00;0.00;;;;;;;;5075769;28;10504;-80
2024/01/05 08:59:38;;;;;;;;;0.25;0.00;;;;;;;;5077539;28;10679;-79
2024/01/05 09:02:06;;;;;;;;;0.50;0.50;;;;;;;;5077421;28;10587;-78
2024/01/05 09:04:34;;;;;;;;;0.00;0.00;;;;;;;;5070851;28;10645;-79
2024/01/05 09:07:01;;;;;;;;;0.00;0.00;;;;;;;;5065459;28;10740;-78
2024/01/05 09:09:31;;;;;;;;;1.00;0.00;;;;;;;;5072408;28;10591;-78
2024/01/05 09:11:59;;;;;;;;;0.00;0.00;;;;;;;;5070631;28;10667;-75
2024/01/05 09:14:27;;;;;;;;;0.00;0.00;;;;;;;;5076299;28;10719;-78
2024/01/05 09:16:54;;;;;;;;;1.00;0.00;;;;;;;;5058970;28;10582;-79
2024/01/05 09:19:22;;;;;;;;;0.00;0.00;;;;;;;;5056530;28;10598;-75
2024/01/05 09:21:49;;;;;;;;;0.00;0.00;;;;;;;;5074067;28;10521;-80
2024/01/05 09:24:16;;;;;;;;;0.25;0.25;;;;;;;;5071541;28;10718;-76
2024/01/05 09:26:43;;;;;;;;;0.00;0.00;;;;;;;;5069446;28;10638;-80
2024/01/05 09:29:11;;;;;;;;;0.00;0.00;;;;;;;;5068847;28;10537;-79
2024/01/05 09:31:39;;;;;;;;;0.00;0.00;;;;;;;;5067773;28;10549;-80
2024/01/05 09:34:06;;;;;;;;;0.00;0.00;;;;;;;;5066947;28;10622;-75
2024/01/05 09:36:34;;;;;;;;;0.00;0.00;;;;;;;;5067539;28;10611;-78
2024/01/05 09:39:01;;;;;;;;;0.00;0.00;;;;;;;;5068022;28;10524;-76
2024/01/05 09:41:31;;;;;;;;;1.00;1.00;;;;;;;;5068543;28;10383;-73
2024/01/05 09:43:59;;;;;;;;;0.00;0.00;;;;;;;;5069685;28;10456;-74
2024/01/05 09:46:27;;;;;;;;;0.00;0.00;;;;;;;;5070652;28;10605;-74
2024/01/05 09:48:57;;;;;;;;;1.00;1.00;;;;;;;;5068941;28;10594;-77
2024/01/05 09:51:24;;;;;;;;;3.00;2.00;;;;;;;;5068944;28;10550;-79
2024/01/05 09:53:51;;;;;;;;;1.75;1.75;;;;;;;;5066322;28;10428;-80
2024/01/05 09:56:19;;;;;;;;;1.00;1.00;;;;;;;;5054925;28;10692;-79
2024/01/05 09:58:46;;;;;;;;;1.00;1.00;;;;;;;;5067518;28;10344;-78
2024/01/05 10:01:19;;;;;;;;;0.00;0.00;;;;;;;;5059390;28;10511;-78
2024/01/05 10:03:47;;;;;;;;;0.00;0.00;;;;;;;;5068515;28;10445;-78
2024/01/05 10:06:18;;;;;;;;;1.50;0.25;;;;;;;;5068519;28;10156;-77
2024/01/05 10:08:45;;;;;;;;;3.00;1.00;;;;;;;;5064595;28;10225;-81
2024/01/05 10:11:13;;;;;;;;;0.25;0.25;;;;;;;;5062394;28;10220;-80
2024/01/05 10:13:54;;;;;;;;;1.00;1.00;;;;;;;;5062789;28;10084;-80
2024/01/05 10:16:24;;;;;;;;;0.00;0.00;;;;;;;;5066285;28;10136;-79
2024/01/05 10:18:51;;;;;;;;;1.00;1.00;;;;;;;;5049928;28;10079;-78
2024/01/05 10:21:24;;;;;;;;;1.00;1.00;;;;;;;;5065737;28;10229;-78
2024/01/05 10:23:51;;;;;;;;;0.00;0.00;;;;;;;;5068829;28;10108;-78
2024/01/05 10:26:20;;;;;;;;;0.75;0.75;;;;;;;;5066934;28;10223;-80
2024/01/05 10:28:48;;;;;;;;;1.00;1.00;;;;;;;;5067915;28;10181;-79
2024/01/05 10:31:17;;;;;;;;;1.00;1.00;;;;;;;;5068299;28;10119;-79
2024/01/05 10:33:51;;;;;;;;;0.50;0.50;;;;;;;;5068176;28;10283;-74
2024/01/05 10:36:24;;;;;;;;;0.75;0.75;;;;;;;;5069425;28;10018;-78
2024/01/05 10:38:52;;;;;;;;;0.75;0.75;;;;;;;;5069603;28;10877;-78
2024/01/05 10:41:21;;;;;;;;;1.00;1.00;;;;;;;;5070125;28;10200;-80
2024/01/05 10:43:49;;;;;;;;;1.00;1.00;;;;;;;;5073687;28;10193;-81
2024/01/05 10:46:18;;;;;;;;;1.00;1.00;;;;;;;;5074294;28;10912;-81
2024/01/05 10:48:45;;;;;;;;;4.00;2.00;;;;;;;;5075466;28;9839;-78
2024/01/05 10:51:15;;;;;;;;;0.00;0.00;;;;;;;;5068472;28;9940;-81
2024/01/05 10:53:46;;;;;;;;;2.00;0.00;;;;;;;;5063079;28;10036;-79
2024/01/05 10:56:14;;;;;;;;;0.00;0.00;;;;;;;;5065862;28;9836;-79
2024/01/05 10:58:42;;;;;;;;;2.75;0.75;;;;;;;;5066803;28;9932;-83
2024/01/05 11:01:09;;;;;;;;;1.25;1.25;;;;;;;;5075205;28;9937;-75
2024/01/05 11:03:37;;;;;;;;;1.50;1.00;;;;;;;;5078239;28;10125;-78
2024/01/05 11:06:08;;;;;;;;;2.00;1.00;;;;;;;;5071089;28;9822;-76
2024/01/05 11:08:45;;;;;;;;;0.25;0.25;;;;;;;;5070470;28;9719;-81
2024/01/05 11:11:21;;;;;;;;;1.00;1.00;;;;;;;;5078267;28;9744;-77
2024/01/05 11:14:13;;;;;;;;;3.75;0.75;;;;;;;;5070324;28;9616;-78
2024/01/05 11:17:09;;;;;;;;;0.00;0.00;;;;;;;;5067461;28;9536;-80
2024/01/05 11:20:00;;;;;;;;;0.50;0.00;;;;;;;;5053585;28;10346;-75
2024/01/05 11:22:30;;;;;;;;;0.00;0.00;;;;;;;;5066955;28;9561;-77
2024/01/05 11:25:02;;;;;;;;;2.25;0.25;;;;;;;;5069028;28;9574;-82
2024/01/05 11:27:33;;;;;;;;;0.00;0.00;;;;;;;;5067017;28;9488;-77
2024/01/05 11:30:03;;;;;;;;;1.00;1.00;;;;;;;;5068991;28;9465;-80
2024/01/05 11:32:34;;;;;;;;;1.67;0.33;;;;;;;;5068729;28;9486;-77
2024/01/05 11:35:02;;;;;;;;;2.67;1.00;;;;;;;;5070174;28;10337;-75
2024/01/05 11:37:35;;;;;;;;;0.33;0.33;;;;;;;;5068655;28;9459;-82
2024/01/05 11:40:05;;;;;;;;;0.67;0.67;;;;;;;;5068248;28;9321;-79
2024/01/05 11:42:34;;;;;;;;;0.33;0.00;;;;;;;;5067912;28;9238;-77
2024/01/05 11:45:04;;;;;;;;;0.00;0.00;;;;;;;;5067373;28;9270;-82
2024/01/05 11:47:41;;;;;;;;;1.00;1.00;;;;;;;;5054353;28;9255;-76
2024/01/05 11:50:28;;;;;;;;;0.00;0.00;;;;;;;;5067386;28;9212;-81
2024/01/05 11:53:12;;;;;;;;;1.00;1.00;;;;;;;;5068340;28;9137;-82
2024/01/05 11:55:48;;;;;;;;;2.00;0.00;;;;;;;;5055413;28;9079;-80
2024/01/05 11:58:17;;;;;;;;;1.00;1.00;;;;;;;;5067231;28;9075;-81
2024/01/05 12:00:46;;;;;;;;;1.00;1.00;;;;;;;;5067035;28;8877;-80
2024/01/05 12:03:13;;;;;;;;;2.00;0.00;;;;;;;;5066093;28;9115;-82
2024/01/05 12:05:41;;;;;;;;;1.00;1.00;;;;;;;;5069919;28;8945;-79
2024/01/05 12:08:11;;;;;;;;;2.00;0.00;;;;;;;;5070394;28;9040;-78
2024/01/05 12:10:40;;;;;;;;;1.33;1.00;;;;;;;;5070409;28;8936;-80
2024/01/05 12:13:08;;;;;;;;;1.00;1.00;;;;;;;;5069144;28;9190;-80
2024/01/05 12:15:36;;;;;;;;;4.00;1.00;;;;;;;;5069903;28;9160;-80
2024/01/05 12:18:05;;;;;;;;;0.67;0.00;;;;;;;;5066299;28;9100;-77
2024/01/05 12:20:32;;;;;;;;;1.00;0.00;;;;;;;;5063733;28;9174;-78
2024/01/05 12:23:02;;;;;;;;;0.67;0.67;;;;;;;;5070258;28;9244;-82
2024/01/05 12:25:31;;;;;;;;;0.00;0.00;;;;;;;;5071425;28;10205;-81
2024/01/05 12:28:03;;;;;;;;;1.67;0.00;;;;;;;;5072053;28;9477;-81
2024/01/05 12:30:30;;;;;;;;;0.67;0.67;;;;;;;;5073103;28;9105;-80
2024/01/05 12:32:57;;;;;;;;;0.00;0.00;;;;;;;;5076076;28;9341;-76
2024/01/05 12:35:25;;;;;;;;;2.33;1.00;;;;;;;;5075619;28;9352;-80
2024/01/05 12:37:53;;;;;;;;;1.75;1.75;;;;;;;;5075898;28;9419;-77
2024/01/05 12:40:24;;;;;;;;;4.00;1.00;;;;;;;;5062438;28;9550;-82
2024/01/05 12:42:52;;;;;;;;;1.00;1.00;;;;;;;;5062748;28;9466;-76
2024/01/05 12:45:22;;;;;;;;;1.50;1.50;;;;;;;;5066273;28;9533;-82
2024/01/05 12:47:50;;;;;;;;;0.00;0.00;;;;;;;;5062801;28;9489;-83
2024/01/05 12:50:24;;;;;;;;;1.00;1.00;;;;;;;;5063471;28;9340;-78
2024/01/05 12:52:52;;;;;;;;;0.00;0.00;;;;;;;;5071247;28;9383;-81
2024/01/05 12:55:31;;;;;;;;;0.50;0.50;;;;;;;;5073681;28;9406;-86
2024/01/05 12:58:02;;;;;;;;;3.00;1.00;;;;;;;;5072426;28;9560;-74
2024/01/05 13:00:32;;;;;;;;;2.00;2.00;;;;;;;;5072847;28;9558;-82
2024/01/05 13:03:02;;;;;;;;;1.75;1.75;;;;;;;;5070880;28;9757;-83
2024/01/05 13:05:30;;;;;;;;;1.00;1.00;;;;;;;;5068393;28;9388;-82
2024/01/05 13:07:58;;;;;;;;;2.25;0.50;;;;;;;;5054713;28;9573;-79
2024/01/05 13:10:26;;;;;;;;;1.00;1.00;;;;;;;;5062127;28;9398;-83
2024/01/05 13:12:53;;;;;;;;;1.25;1.25;;;;;;;;5068486;28;9443;-83
2024/01/05 13:15:21;;;;;;;;;1.00;1.00;;;;;;;;5061673;28;9541;-75
2024/01/05 13:17:51;;;;;;;;;2.50;2.50;;;;;;;;5065303;28;9538;-81
2024/01/05 13:20:22;;;;;;;;;1.25;1.25;;;;;;;;5060295;28;10534;-77
2024/01/05 13:22:50;;;;;;;;;1.00;1.00;;;;;;;;5067814;28;9622;-75
2024/01/05 13:25:17;;;;;;;;;2.00;1.00;;;;;;;;5069546;28;10284;-81
2024/01/05 13:27:44;;;;;;;;;1.67;1.00;;;;;;;;5067870;28;9473;-78
2024/01/05 13:30:13;;;;;;;;;0.00;0.00;;;;;;;;5069202;28;9550;-81
2024/01/05 13:32:40;;;;;;;;;1.33;0.00;;;;;;;;5070975;28;9415;-76
2024/01/05 13:35:09;;;;;;;;;4.00;1.00;;;;;;;;5074856;28;9269;-72
2024/01/05 13:37:37;;;;;;;;;0.33;0.00;;;;;;;;5077561;28;9519;-78
2024/01/05 13:40:05;;;;;;;;;0.75;0.75;;;;;;;;5060188;28;9409;-78
2024/01/05 13:42:35;;;;;;;;;3.00;3.00;;;;;;;;5055791;28;9553;-80
2024/01/05 13:45:04;;;;;;;;;2.00;2.00;;;;;;;;5063571;28;9600;-83
2024/01/05 13:47:32;;;;;;;;;1.25;1.25;;;;;;;;5068880;28;9465;-82
2024/01/05 13:49:59;;;;;;;;;2.00;2.00;;;;;;;;5069636;28;9520;-81
2024/01/05 13:52:28;;;;;;;;;1.50;1.50;;;;;;;;5069761;28;9469;-84
2024/01/05 13:54:55;;;;;;;;;2.00;2.00;;;;;;;;5069181;28;9701;-82
2024/01/05 13:57:22;;;;;;;;;4.25;2.75;;;;;;;;5069435;28;9481;-83
2024/01/05 13:59:50;;;;;;;;;1.50;1.50;;;;;;;;5069292;28;9537;-84
2024/01/05 14:02:19;;;;;;;;;1.00;1.00;;;;;;;;5064125;28;9363;-84
2024/01/05 14:04:47;;;;;;;;;1.33;0.00;;;;;;;;5055485;28;9412;-84
2024/01/05 14:07:14;;;;;;;;;0.00;0.00;;;;;;;;5071598;28;9427;-83
2024/01/05 14:09:43;;;;;;;;;3.33;1.00;;;;;;;;5061746;28;9416;-84
2024/01/05 14:12:11;;;;;;;;;0.00;0.00;;;;;;;;5062957;28;9275;-82
2024/01/05 14:14:38;;;;;;;;;1.00;1.00;;;;;;;;5069068;28;10032;-82
2024/01/05 14:17:05;;;;;;;;;11.50;10.50;;;;;;;;5070425;28;9382;-81
2024/01/05 14:19:34;;;;;;;;;0.00;0.00;;;;;;;;5071313;28;9882;-82
2024/01/05 14:22:01;;;;;;;;;1.00;1.00;;;;;;;;5073131;28;9400;-81
2024/01/05 14:24:28;;;;;;;;;0.00;0.00;;;;;;;;5074455;28;9390;-82
2024/01/05 14:26:57;;;;;;;;;0.33;0.33;;;;;;;;5062234;28;9419;-75
2024/01/05 14:29:25;;;;;;;;;0.00;0.00;;;;;;;;5065186;28;9325;-81
2024/01/05 14:31:52;;;;;;;;;1.00;1.00;;;;;;;;5058218;28;9499;-82
2024/01/05 14:34:19;;;;;;;;;0.75;0.75;;;;;;;;5073583;28;9400;-83
2024/01/05 14:36:46;;;;;;;;;1.00;1.00;;;;;;;;5073795;28;9485;-82
2024/01/05 14:39:14;;;;;;;;;2.00;1.00;;;;;;;;5069965;28;9480;-78
2024/01/05 14:41:41;;;;;;;;;1.25;1.25;;;;;;;;5065515;28;9572;-83
2024/01/05 14:44:09;;;;;;;;;1.25;1.25;;;;;;;;5064542;28;9495;-81
2024/01/05 14:46:45;;;;;;;;;2.00;1.00;;;;;;;;5067031;28;9540;-81
2024/01/05 14:49:12;;;;;;;;;1.00;1.00;;;;;;;;5064235;28;9685;-84
2024/01/05 14:51:39;;;;;;;;;2.25;1.25;;;;;;;;5068414;28;9553;-81
2024/01/05 14:54:07;;;;;;;;;1.00;1.00;;;;;;;;5068170;28;9551;-75
2024/01/05 14:56:34;;;;;;;;;0.00;0.00;;;;;;;;5060017;28;9731;-83
2024/01/05 14:59:02;;;;;;;;;2.50;1.00;;;;;;;;5066220;28;9680;-74